Time;durP1;ratioP1;P1;durP2;ratioP2;P2;SDS_P1;SDS_P2;PMS_P1;PMS_P2;Temp;Humidity;BMP_temperature;BMP_pressure;BME280_temperature;BME280_humidity;BME280_pressure;Samples;Min_cycle;Max_cycle;Signal;HPM_P1;HPM_P2
2024/05/08 00:02:18;;;;;;;148.67;48.10;;;17.80;91.80;;;;;;5541401;25;20917;-56
2024/05/08 00:04:49;;;;;;;148.27;47.80;;;17.60;92.00;;;;;;5507177;25;20236;-55
2024/05/08 00:07:19;;;;;;;149.00;48.10;;;17.50;91.70;;;;;;5507064;25;20326;-53
2024/05/08 00:09:49;;;;;;;149.23;48.07;;;17.60;92.00;;;;;;5507162;25;20224;-54
2024/05/08 00:12:19;;;;;;;149.60;48.50;;;17.50;92.10;;;;;;5507419;25;20244;-54
2024/05/08 00:14:49;;;;;;;148.33;47.83;;;17.60;92.20;;;;;;5507099;25;20601;-51
2024/05/08 00:17:22;;;;;;;149.33;48.27;;;17.50;92.00;;;;;;5507003;25;20240;-54
2024/05/08 00:19:52;;;;;;;149.00;48.07;;;17.50;92.80;;;;;;5506291;25;20228;-54
2024/05/08 00:22:22;;;;;;;148.80;47.97;;;17.60;92.70;;;;;;5507268;25;20763;-57
2024/05/08 00:24:52;;;;;;;148.93;48.10;;;17.50;92.80;;;;;;5507262;25;20225;-57
2024/05/08 00:27:22;;;;;;;148.80;48.03;;;17.50;93.30;;;;;;5506944;25;20237;-56
2024/05/08 00:29:52;;;;;;;149.43;48.37;;;17.40;93.00;;;;;;5505134;26;20240;-56
2024/05/08 00:32:24;;;;;;;148.07;47.40;;;17.40;93.40;;;;;;5506919;26;20241;-56
2024/05/08 00:34:55;;;;;;;149.13;48.07;;;17.40;93.30;;;;;;5506173;25;20232;-56
2024/05/08 00:37:26;;;;;;;148.67;47.87;;;17.40;93.70;;;;;;5506777;25;20262;-54
2024/05/08 00:39:56;;;;;;;148.23;47.60;;;17.30;93.90;;;;;;5506634;25;20240;-55
2024/05/08 00:42:26;;;;;;;148.63;47.83;;;17.40;94.00;;;;;;5507065;25;20721;-51
2024/05/08 00:44:56;;;;;;;148.70;47.87;;;17.30;94.30;;;;;;5519127;25;20568;-52
2024/05/08 00:47:30;;;;;;;148.93;48.13;;;17.30;93.80;;;;;;5543857;25;20252;-51
2024/05/08 00:50:00;;;;;;;148.83;48.07;;;17.20;94.40;;;;;;5543089;25;20228;-55
2024/05/08 00:52:31;;;;;;;148.70;48.00;;;17.30;94.20;;;;;;5543786;25;20243;-55
2024/05/08 00:55:01;;;;;;;148.53;47.90;;;17.40;94.80;;;;;;5543292;25;20239;-51
2024/05/08 00:57:32;;;;;;;148.63;47.97;;;17.40;94.40;;;;;;5534433;25;20300;-51
2024/05/08 01:00:04;;;;;;;148.47;47.80;;;17.40;94.60;;;;;;5527610;25;20224;-51
2024/05/08 01:02:49;;;;;;;148.87;47.97;;;17.40;94.50;;;;;;5528301;25;20728;-52
2024/05/08 01:05:19;;;;;;;148.27;47.83;;;17.30;95.60;;;;;;5527533;25;20533;-52
2024/05/08 01:07:49;;;;;;;148.10;47.67;;;17.20;96.70;;;;;;5526309;25;20698;-55
2024/05/08 01:10:20;;;;;;;148.13;47.63;;;17.10;97.00;;;;;;5527162;25;21073;-55
2024/05/08 01:13:01;;;;;;;148.43;47.87;;;17.20;97.00;;;;;;5527328;25;20604;-55
2024/05/08 01:15:32;;;;;;;148.53;48.03;;;17.20;96.90;;;;;;5526788;25;20717;-55
2024/05/08 01:18:05;;;;;;;148.37;47.70;;;17.10;98.10;;;;;;5527706;25;21005;-55
2024/05/08 01:20:41;;;;;;;148.47;47.77;;;17.00;98.40;;;;;;5526941;25;20654;-56
2024/05/08 01:23:20;;;;;;;147.73;47.40;;;17.10;98.10;;;;;;5526647;25;21210;-56
2024/05/08 01:25:47;;;;;;;147.77;47.47;;;16.90;99.10;;;;;;5526486;25;20536;-55
2024/05/08 01:28:17;;;;;;;148.13;47.53;;;16.70;99.90;;;;;;5527273;25;20585;-55
2024/05/08 01:30:47;;;;;;;148.23;47.80;;;16.80;99.90;;;;;;5527051;25;20224;-55
2024/05/08 01:33:17;;;;;;;147.33;47.27;;;16.90;99.50;;;;;;5527382;25;20576;-55
2024/05/08 01:35:48;;;;;;;148.73;47.90;;;16.80;99.90;;;;;;5526938;25;20913;-55
2024/05/08 01:38:21;;;;;;;148.03;47.57;;;16.80;99.90;;;;;;5526951;25;20240;-55
2024/05/08 01:40:51;;;;;;;147.57;47.30;;;16.80;99.90;;;;;;5526867;25;20565;-55
2024/05/08 01:43:21;;;;;;;147.67;47.47;;;16.90;99.90;;;;;;5527366;25;20633;-56
2024/05/08 01:45:51;;;;;;;147.93;47.73;;;16.70;99.90;;;;;;5526591;25;20690;-55
2024/05/08 01:48:21;;;;;;;147.87;47.50;;;16.60;99.90;;;;;;5527299;25;20690;-55
2024/05/08 01:50:51;;;;;;;147.40;47.30;;;16.80;99.90;;;;;;5526069;25;20579;-55
2024/05/08 01:53:24;;;;;;;147.70;47.37;;;16.60;99.90;;;;;;5527234;25;21247;-53
2024/05/08 01:55:54;;;;;;;147.80;47.53;;;16.50;99.90;;;;;;5525961;25;20601;-51
2024/05/08 01:58:24;;;;;;;147.50;47.37;;;16.70;99.90;;;;;;5526929;25;21258;-51
2024/05/08 02:00:54;;;;;;;148.07;47.53;;;16.70;99.90;;;;;;5525857;25;21239;-54
2024/05/08 02:03:25;;;;;;;147.70;47.43;;;16.70;99.90;;;;;;5526427;25;20649;-54
2024/05/08 02:05:55;;;;;;;147.73;47.50;;;16.70;99.90;;;;;;5526394;25;20644;-54
2024/05/08 02:08:28;;;;;;;147.47;47.37;;;16.50;99.90;;;;;;5525753;25;20592;-53
2024/05/08 02:10:58;;;;;;;147.83;47.47;;;16.50;99.90;;;;;;5525581;25;20537;-56
2024/05/08 02:13:28;;;;;;;148.17;47.63;;;16.50;99.90;;;;;;5526837;25;20632;-53
2024/05/08 02:15:58;;;;;;;147.73;47.67;;;16.50;99.90;;;;;;5526572;25;20880;-52
2024/05/08 02:18:28;;;;;;;147.43;47.33;;;16.60;99.90;;;;;;5526789;25;20577;-54
2024/05/08 02:20:58;;;;;;;148.03;47.70;;;16.60;99.90;;;;;;5526067;25;20537;-55
2024/05/08 02:23:31;;;;;;;146.83;46.97;;;16.60;99.90;;;;;;5526728;25;20697;-55
2024/05/08 02:26:01;;;;;;;146.67;46.97;;;16.50;99.90;;;;;;5526337;25;20616;-55
2024/05/08 02:28:31;;;;;;;146.50;46.90;;;16.50;99.90;;;;;;5526542;25;21415;-55
2024/05/08 02:31:01;;;;;;;146.63;46.87;;;16.70;99.90;;;;;;5526497;25;20585;-55
2024/05/08 02:33:31;;;;;;;147.57;47.50;;;16.70;99.90;;;;;;5526448;25;20580;-55
2024/05/08 02:36:01;;;;;;;147.30;47.40;;;16.60;99.90;;;;;;5524743;25;20529;-55
2024/05/08 02:38:38;;;;;;;147.47;47.43;;;16.40;99.90;;;;;;5526689;25;20693;-56
2024/05/08 02:41:08;;;;;;;146.80;47.20;;;16.30;99.90;;;;;;5526393;25;21000;-56
2024/05/08 02:43:38;;;;;;;147.27;47.30;;;16.10;99.90;;;;;;5526092;25;20634;-55
2024/05/08 02:46:09;;;;;;;146.73;46.97;;;16.10;99.90;;;;;;5494860;25;20638;-54
2024/05/08 02:48:39;;;;;;;147.23;47.23;;;16.40;99.90;;;;;;5489372;26;20579;-55
2024/05/08 02:51:09;;;;;;;146.60;47.10;;;16.20;99.90;;;;;;5510485;26;21125;-53
2024/05/08 02:53:42;;;;;;;147.23;47.30;;;16.30;99.90;;;;;;5525906;25;20956;-52
2024/05/08 02:56:11;;;;;;;146.50;46.93;;;16.40;99.90;;;;;;5526045;25;20529;-55
2024/05/08 02:58:42;;;;;;;147.17;47.17;;;16.40;99.90;;;;;;5526101;25;20912;-55
2024/05/08 03:01:12;;;;;;;147.83;47.57;;;16.50;99.90;;;;;;5525829;25;20538;-55
2024/05/08 03:03:42;;;;;;;146.90;47.13;;;16.50;99.90;;;;;;5526016;25;20723;-55
2024/05/08 03:06:12;;;;;;;146.73;47.37;;;16.50;99.90;;;;;;5525218;25;20586;-52
2024/05/08 03:08:45;;;;;;;147.03;47.37;;;16.40;99.90;;;;;;5523514;25;21049;-54
2024/05/08 03:11:21;;;;;;;147.23;47.33;;;16.30;99.90;;;;;;5488881;26;20554;-54
2024/05/08 03:13:52;;;;;;;146.77;47.00;;;16.30;99.90;;;;;;5489683;26;20582;-54
2024/05/08 03:16:23;;;;;;;147.03;47.20;;;16.20;99.90;;;;;;5488987;26;20547;-54
2024/05/08 03:18:53;;;;;;;146.63;46.93;;;16.40;99.90;;;;;;5488703;26;21154;-53
2024/05/08 03:21:23;;;;;;;146.27;46.80;;;16.20;99.90;;;;;;5519051;26;20632;-54
2024/05/08 03:23:55;;;;;;;147.03;47.20;;;16.10;99.90;;;;;;5524753;26;21212;-54
2024/05/08 03:26:25;;;;;;;146.90;47.30;;;16.10;99.90;;;;;;5525587;25;20974;-53
2024/05/08 03:28:55;;;;;;;146.63;47.10;;;16.10;99.90;;;;;;5525373;25;20652;-53
2024/05/08 03:31:26;;;;;;;146.73;47.13;;;16.00;99.90;;;;;;5525847;25;20534;-53
2024/05/08 03:33:56;;;;;;;147.00;47.33;;;16.10;99.90;;;;;;5525499;25;20664;-53
2024/05/08 03:36:26;;;;;;;147.27;47.37;;;16.10;99.90;;;;;;5525447;25;20545;-54
2024/05/08 03:38:59;;;;;;;147.20;47.33;;;16.20;99.90;;;;;;5524622;25;20593;-53
2024/05/08 03:41:29;;;;;;;146.27;46.80;;;16.30;99.90;;;;;;5524767;25;20561;-54
2024/05/08 03:43:59;;;;;;;146.80;47.10;;;16.30;99.90;;;;;;5524978;25;20581;-53
2024/05/08 03:46:31;;;;;;;146.40;47.00;;;16.10;99.90;;;;;;5524941;25;20581;-53
2024/05/08 03:49:02;;;;;;;146.60;47.10;;;15.90;99.90;;;;;;5505783;25;20664;-51
2024/05/08 03:51:32;;;;;;;146.17;46.83;;;15.70;99.90;;;;;;5505177;26;20586;-49
2024/05/08 03:54:05;;;;;;;146.37;47.00;;;16.00;99.90;;;;;;5500168;26;20714;-50
2024/05/08 03:56:35;;;;;;;146.77;47.13;;;15.80;99.90;;;;;;5512125;25;20634;-53
2024/05/08 03:59:06;;;;;;;146.60;47.00;;;16.00;99.90;;;;;;5511509;26;21221;-53
2024/05/08 04:01:41;;;;;;;146.17;46.80;;;16.10;99.90;;;;;;5521012;26;20581;-53
2024/05/08 04:04:11;;;;;;;147.30;47.60;;;16.20;99.90;;;;;;5519106;25;20600;-53
2024/05/08 04:06:42;;;;;;;146.60;47.20;;;16.20;99.90;;;;;;5516651;26;20568;-53
2024/05/08 04:09:14;;;;;;;146.63;47.17;;;16.20;99.90;;;;;;5515626;25;21001;-50
2024/05/08 04:11:44;;;;;;;146.30;46.87;;;16.30;99.90;;;;;;5521835;25;20666;-50
2024/05/08 04:14:16;;;;;;;146.80;47.27;;;16.20;99.90;;;;;;5515650;25;20589;-51
2024/05/08 04:16:47;;;;;;;146.43;47.07;;;16.10;99.90;;;;;;5520096;25;20677;-51
2024/05/08 04:19:17;;;;;;;146.20;47.07;;;16.20;99.90;;;;;;5521857;25;20569;-51
2024/05/08 04:21:47;;;;;;;146.67;47.20;;;16.20;99.90;;;;;;5522166;25;20558;-54
2024/05/08 04:24:19;;;;;;;147.00;47.33;;;16.20;99.90;;;;;;5521764;26;20698;-56
2024/05/08 04:26:49;;;;;;;147.00;47.50;;;16.20;99.90;;;;;;5521753;25;20674;-54
2024/05/08 04:29:20;;;;;;;146.20;46.90;;;16.20;99.90;;;;;;5521800;25;20573;-55
2024/05/08 04:31:50;;;;;;;146.63;47.23;;;16.20;99.90;;;;;;5521971;25;20569;-55
2024/05/08 04:34:20;;;;;;;146.43;47.20;;;16.30;99.90;;;;;;5515103;25;20668;-51
2024/05/08 04:36:50;;;;;;;146.80;47.23;;;16.50;99.90;;;;;;5509236;25;20652;-51
2024/05/08 04:39:23;;;;;;;146.30;47.07;;;16.40;99.90;;;;;;5523208;26;20631;-49
2024/05/08 04:41:53;;;;;;;145.90;46.93;;;16.50;99.90;;;;;;5519402;26;20576;-51
2024/05/08 04:44:24;;;;;;;146.37;46.97;;;16.50;99.90;;;;;;5526520;25;20690;-55
2024/05/08 04:46:54;;;;;;;146.37;46.93;;;16.60;99.90;;;;;;5523813;25;20604;-51
2024/05/08 04:49:24;;;;;;;146.40;47.13;;;16.60;99.90;;;;;;5522280;25;20562;-54
2024/05/08 04:51:54;;;;;;;147.30;47.53;;;16.50;99.90;;;;;;5522367;25;20585;-53
2024/05/08 04:54:27;;;;;;;146.57;47.17;;;16.60;99.90;;;;;;5524174;25;20576;-54
2024/05/08 04:56:57;;;;;;;146.70;47.27;;;16.50;99.90;;;;;;5524667;26;20624;-55
2024/05/08 04:59:27;;;;;;;147.67;47.63;;;16.40;99.90;;;;;;5524937;25;20674;-54
2024/05/08 05:01:57;;;;;;;147.00;47.43;;;16.30;99.90;;;;;;5525813;25;20573;-54
2024/05/08 05:04:27;;;;;;;146.23;47.23;;;16.20;99.90;;;;;;5524507;25;20629;-54
2024/05/08 05:06:57;;;;;;;146.97;47.40;;;16.40;99.90;;;;;;5525450;25;20569;-55
2024/05/08 05:09:30;;;;;;;146.13;46.97;;;16.50;99.90;;;;;;5524566;26;20581;-56
2024/05/08 05:12:00;;;;;;;146.90;47.23;;;16.40;99.90;;;;;;5524298;26;21095;-53
2024/05/08 05:14:30;;;;;;;146.67;47.33;;;16.50;99.90;;;;;;5515073;25;20976;-55
2024/05/08 05:17:01;;;;;;;146.70;47.37;;;16.70;99.90;;;;;;5487894;26;20878;-54
2024/05/08 05:19:31;;;;;;;147.23;47.63;;;16.80;99.90;;;;;;5489841;26;20649;-55
2024/05/08 05:22:01;;;;;;;146.53;47.27;;;16.70;99.90;;;;;;5489937;26;20610;-55
2024/05/08 05:24:34;;;;;;;146.40;47.23;;;16.70;99.90;;;;;;5490457;26;20655;-50
2024/05/08 05:27:05;;;;;;;146.77;47.37;;;16.50;99.90;;;;;;5490694;26;20591;-50
2024/05/08 05:29:35;;;;;;;146.77;47.50;;;16.60;99.90;;;;;;5492573;26;20530;-49
2024/05/08 05:34:56;;;;;;;146.33;47.20;;;16.50;99.90;;;;;;5526405;25;20557;-51
2024/05/08 05:37:27;;;;;;;146.33;47.13;;;16.40;99.90;;;;;;5526657;25;20640;-54
2024/05/08 05:39:59;;;;;;;146.33;47.07;;;16.40;99.90;;;;;;5526813;25;20662;-55
2024/05/08 05:48:02;;;;;;;147.00;47.50;;;16.50;99.90;;;;;;5526459;25;20949;-54
2024/05/08 05:50:32;;;;;;;146.57;47.27;;;16.40;99.90;;;;;;5525519;25;20621;-54
2024/05/08 05:53:06;;;;;;;146.07;46.93;;;16.50;99.90;;;;;;5527599;25;21180;-55
2024/05/08 05:55:39;;;;;;;147.03;47.50;;;16.80;99.90;;;;;;5526315;25;20617;-54
2024/05/08 05:58:09;;;;;;;145.87;46.97;;;16.90;99.90;;;;;;5526951;25;21257;-53
2024/05/08 06:00:39;;;;;;;146.60;47.33;;;16.80;99.80;;;;;;5526345;25;20545;-54
2024/05/08 06:03:10;;;;;;;146.53;47.30;;;16.90;99.90;;;;;;5525478;26;20995;-56
2024/05/08 06:05:40;;;;;;;146.90;47.43;;;17.00;99.90;;;;;;5525812;25;20658;-55
2024/05/08 06:08:11;;;;;;;146.13;46.93;;;16.60;99.70;;;;;;5526391;25;20584;-55
2024/05/08 06:10:45;;;;;;;146.53;47.30;;;16.60;99.90;;;;;;5521656;25;21661;-55
2024/05/08 06:13:15;;;;;;;146.83;47.37;;;16.80;99.90;;;;;;5525432;26;20633;-54
2024/05/08 06:15:45;;;;;;;146.93;47.37;;;17.10;98.70;;;;;;5522349;25;20684;-52
2024/05/08 06:18:16;;;;;;;146.43;47.23;;;16.90;98.40;;;;;;5521689;26;21277;-53
2024/05/08 06:20:46;;;;;;;147.07;47.60;;;16.70;98.60;;;;;;5516536;25;20573;-55
2024/05/08 06:23:16;;;;;;;147.03;47.60;;;17.00;98.70;;;;;;5525074;25;20669;-56
2024/05/08 06:25:49;;;;;;;146.67;47.33;;;16.80;99.40;;;;;;5489837;26;20940;-51
2024/05/08 06:28:19;;;;;;;147.27;47.63;;;16.80;99.10;;;;;;5502824;25;20251;-50
2024/05/08 06:30:49;;;;;;;146.87;47.60;;;16.80;98.10;;;;;;5523132;25;20693;-50
2024/05/08 06:33:19;;;;;;;146.73;47.43;;;16.60;98.20;;;;;;5524582;25;20667;-49
2024/05/08 06:35:50;;;;;;;146.93;47.50;;;16.70;99.90;;;;;;5519131;25;20652;-50
2024/05/08 06:38:20;;;;;;;146.97;47.50;;;16.70;99.90;;;;;;5525277;26;20660;-51
2024/05/08 06:40:53;;;;;;;146.83;47.37;;;16.70;97.60;;;;;;5518336;26;20581;-51
2024/05/08 06:43:23;;;;;;;146.87;47.47;;;16.70;98.50;;;;;;5526279;25;20632;-50
2024/05/08 06:45:53;;;;;;;147.40;47.77;;;16.60;98.50;;;;;;5522511;25;20593;-52
2024/05/08 06:48:24;;;;;;;146.90;47.50;;;16.80;99.40;;;;;;5517805;26;20717;-50
2024/05/08 06:50:54;;;;;;;146.60;47.40;;;16.70;99.40;;;;;;5517172;26;20576;-50
2024/05/08 06:53:24;;;;;;;146.70;47.30;;;16.80;97.90;;;;;;5524274;25;20600;-50
2024/05/08 06:55:57;;;;;;;146.93;47.53;;;16.80;96.40;;;;;;5520469;26;20593;-54
2024/05/08 06:58:27;;;;;;;146.90;47.57;;;16.80;99.40;;;;;;5524320;25;21354;-50
2024/05/08 07:00:57;;;;;;;146.37;47.20;;;16.80;98.00;;;;;;5522949;25;20980;-50
2024/05/08 07:03:47;;;;;;;147.13;47.70;;;16.90;99.50;;;;;;5498321;26;20569;-50
2024/05/08 07:06:18;;;;;;;147.43;47.80;;;17.10;97.90;;;;;;5521858;26;21173;-51
2024/05/08 07:08:48;;;;;;;147.07;47.47;;;17.10;98.70;;;;;;5523801;25;20676;-51
2024/05/08 07:11:22;;;;;;;147.43;47.83;;;17.00;97.80;;;;;;5517437;26;20574;-50
2024/05/08 07:13:53;;;;;;;147.77;47.93;;;17.60;98.70;;;;;;5524743;25;20573;-52
2024/05/08 07:16:23;;;;;;;147.23;47.77;;;17.50;96.30;;;;;;5523133;25;20641;-52
2024/05/08 07:18:53;;;;;;;147.73;48.13;;;17.30;96.90;;;;;;5523466;25;21242;-50
2024/05/08 07:21:24;;;;;;;147.17;47.73;;;17.20;97.20;;;;;;5522229;25;20638;-56
2024/05/08 07:23:54;;;;;;;146.93;47.60;;;16.90;96.80;;;;;;5522632;25;20593;-51
2024/05/08 07:26:27;;;;;;;147.17;47.70;;;17.00;97.20;;;;;;5522693;25;20664;-52
2024/05/08 07:28:57;;;;;;;147.70;47.93;;;17.20;95.00;;;;;;5522973;25;20682;-48
2024/05/08 07:31:27;;;;;;;147.53;47.73;;;17.30;96.50;;;;;;5524338;25;20529;-48
2024/05/08 07:33:57;;;;;;;147.83;48.03;;;17.20;94.50;;;;;;5496597;25;20708;-51
2024/05/08 07:36:27;;;;;;;147.20;47.73;;;17.10;95.70;;;;;;5487037;26;20570;-47
2024/05/08 07:38:57;;;;;;;147.10;47.70;;;17.20;97.00;;;;;;5486015;26;20559;-49
2024/05/08 07:41:30;;;;;;;147.30;47.70;;;17.10;96.60;;;;;;5519764;26;20557;-48
2024/05/08 07:44:00;;;;;;;147.63;47.93;;;17.10;96.20;;;;;;5522705;25;20569;-53
2024/05/08 07:46:32;;;;;;;147.50;47.83;;;17.00;95.70;;;;;;5517401;25;20593;-49
2024/05/08 07:49:03;;;;;;;147.20;47.70;;;17.00;96.00;;;;;;5522049;26;21253;-48
2024/05/08 07:51:33;;;;;;;147.93;48.07;;;17.10;94.90;;;;;;5522059;25;20570;-49
2024/05/08 07:54:03;;;;;;;147.53;47.83;;;17.00;95.60;;;;;;5523888;25;20722;-48
2024/05/08 07:56:37;;;;;;;146.50;47.37;;;17.20;96.40;;;;;;5518900;25;20576;-50
2024/05/08 07:59:07;;;;;;;147.57;48.03;;;17.10;96.30;;;;;;5509297;25;20726;-51
2024/05/08 08:01:37;;;;;;;147.90;48.03;;;17.20;95.50;;;;;;5509883;26;20570;-50
2024/05/08 08:04:08;;;;;;;147.20;47.77;;;17.30;95.20;;;;;;5509695;26;20604;-55
2024/05/08 08:06:40;;;;;;;147.60;47.70;;;17.50;95.20;;;;;;5517383;25;20573;-55
2024/05/08 08:09:10;;;;;;;148.47;48.27;;;17.80;92.70;;;;;;5525841;25;20596;-57
2024/05/08 08:11:46;;;;;;;148.47;48.50;;;17.50;94.40;;;;;;5525986;25;20584;-52
2024/05/08 08:14:16;;;;;;;147.47;47.90;;;17.30;94.70;;;;;;5526968;25;20318;-49
2024/05/08 08:16:46;;;;;;;147.63;48.07;;;17.30;96.80;;;;;;5526039;25;20682;-49
2024/05/08 08:19:23;;;;;;;147.97;48.17;;;17.20;96.30;;;;;;5525517;25;21008;-49
2024/05/08 08:21:53;;;;;;;147.47;47.93;;;17.20;94.60;;;;;;5511426;26;20750;-49
2024/05/08 08:24:24;;;;;;;147.50;47.97;;;17.00;95.90;;;;;;5519236;26;21027;-48
2024/05/08 08:26:56;;;;;;;147.60;48.03;;;17.30;94.40;;;;;;5523641;25;20569;-49
2024/05/08 08:29:26;;;;;;;147.30;47.73;;;17.00;93.90;;;;;;5524518;25;20592;-49
2024/05/08 08:31:57;;;;;;;147.30;47.80;;;17.00;96.40;;;;;;5524862;25;20580;-49
2024/05/08 08:34:27;;;;;;;147.90;47.97;;;17.20;93.80;;;;;;5522483;25;20596;-49
2024/05/08 08:36:57;;;;;;;148.30;48.10;;;17.30;94.20;;;;;;5525047;25;20569;-49
2024/05/08 08:39:27;;;;;;;148.17;48.27;;;17.20;94.70;;;;;;5510762;25;20657;-51
2024/05/08 08:42:05;;;;;;;147.50;47.90;;;17.10;93.70;;;;;;5505529;26;20983;-49
2024/05/08 08:44:37;;;;;;;147.07;47.70;;;17.20;93.30;;;;;;5504630;26;20604;-52
2024/05/08 08:47:09;;;;;;;147.67;47.93;;;17.30;94.60;;;;;;5510155;25;20586;-49
2024/05/08 08:49:40;;;;;;;148.07;48.27;;;17.20;93.90;;;;;;5519839;26;20672;-51
2024/05/08 08:52:11;;;;;;;148.13;48.17;;;17.20;93.90;;;;;;5520481;26;20565;-48
2024/05/08 08:54:41;;;;;;;148.13;48.33;;;17.20;94.30;;;;;;5522933;25;20708;-50
2024/05/08 08:57:17;;;;;;;148.33;48.33;;;17.50;95.30;;;;;;5517135;26;20581;-50
2024/05/08 08:59:50;;;;;;;148.00;47.97;;;17.70;96.40;;;;;;5524952;25;20293;-49
2024/05/08 09:02:25;;;;;;;147.73;47.93;;;17.80;96.90;;;;;;5526183;25;20565;-49
2024/05/08 09:04:57;;;;;;;149.03;48.60;;;17.70;96.10;;;;;;5516389;26;20565;-48
2024/05/08 09:07:28;;;;;;;146.97;47.73;;;17.80;97.00;;;;;;5525327;25;20655;-49
2024/05/08 09:09:58;;;;;;;147.93;48.33;;;17.80;95.10;;;;;;5521253;26;20285;-49
2024/05/08 09:12:31;;;;;;;148.23;48.33;;;17.70;95.00;;;;;;5526402;25;20874;-50
2024/05/08 09:15:09;;;;;;;148.43;48.50;;;18.10;94.50;;;;;;5523156;25;20584;-50
2024/05/08 09:17:40;;;;;;;148.67;48.53;;;18.00;94.70;;;;;;5524995;25;20657;-51
2024/05/08 09:20:12;;;;;;;148.43;48.57;;;18.10;93.60;;;;;;5524641;25;20577;-51
2024/05/08 09:22:55;;;;;;;148.57;48.47;;;18.10;93.90;;;;;;5525834;26;20244;-52
2024/05/08 09:25:25;;;;;;;149.23;48.93;;;18.20;93.60;;;;;;5525850;25;20224;-54
2024/05/08 09:27:59;;;;;;;148.87;48.70;;;18.60;92.20;;;;;;5526281;25;20279;-55
2024/05/08 09:30:29;;;;;;;149.07;48.60;;;18.60;91.80;;;;;;5523770;26;20342;-53
2024/05/08 09:33:07;;;;;;;149.00;48.63;;;18.70;91.00;;;;;;5525252;25;20294;-55
2024/05/08 09:35:39;;;;;;;149.03;48.83;;;18.50;91.80;;;;;;5508304;25;20303;-55
2024/05/08 09:38:12;;;;;;;150.43;49.53;;;18.70;91.30;;;;;;5522800;25;20298;-57
2024/05/08 09:40:42;;;;;;;149.53;49.10;;;19.00;91.30;;;;;;5502380;26;20241;-55
2024/05/08 09:43:15;;;;;;;150.43;49.37;;;18.90;90.80;;;;;;5519017;26;20329;-56
2024/05/08 09:45:47;;;;;;;150.10;49.17;;;19.20;90.00;;;;;;5522154;25;20263;-51
2024/05/08 09:48:24;;;;;;;150.63;49.70;;;19.40;89.20;;;;;;5505432;25;20286;-52
2024/05/08 09:51:03;;;;;;;150.70;49.67;;;19.20;86.90;;;;;;5517870;26;20244;-51
2024/05/08 09:53:39;;;;;;;150.97;49.73;;;19.50;89.60;;;;;;5525289;25;20247;-50
2024/05/08 09:56:28;;;;;;;151.03;50.07;;;20.30;89.80;;;;;;5521174;25;20247;-53
2024/05/08 09:59:02;;;;;;;150.57;49.90;;;19.90;84.20;;;;;;5524545;25;20386;-54
2024/05/08 10:01:34;;;;;;;150.30;49.73;;;19.80;83.70;;;;;;5523208;25;20301;-54
2024/05/08 10:04:05;;;;;;;150.67;49.87;;;19.70;85.60;;;;;;5526305;25;20267;-55
2024/05/08 10:06:43;;;;;;;151.53;50.57;;;20.20;81.00;;;;;;5521877;25;20244;-55
2024/05/08 10:09:14;;;;;;;151.57;50.47;;;20.70;80.20;;;;;;5524488;25;20327;-55
2024/05/08 10:11:59;;;;;;;151.80;50.90;;;19.90;81.90;;;;;;5522859;25;20251;-53
2024/05/08 10:14:33;;;;;;;151.27;50.47;;;20.20;81.40;;;;;;5514805;25;20728;-57
2024/05/08 10:17:15;;;;;;;151.57;50.47;;;20.40;81.30;;;;;;5525183;25;20725;-55
2024/05/08 10:19:46;;;;;;;150.97;50.00;;;20.30;80.00;;;;;;5523530;25;20315;-54
2024/05/08 10:22:27;;;;;;;151.20;50.40;;;20.50;79.10;;;;;;5525065;25;20351;-56
2024/05/08 10:25:11;;;;;;;150.90;50.30;;;20.60;78.80;;;;;;5521474;26;20302;-58
2024/05/08 10:27:39;;;;;;;151.23;50.17;;;20.30;78.60;;;;;;5524733;26;20256;-55
2024/05/08 10:30:12;;;;;;;151.93;50.53;;;20.50;80.60;;;;;;5522461;25;20269;-57
2024/05/08 10:32:57;;;;;;;151.97;50.40;;;20.50;80.60;;;;;;5518943;25;20357;-58
2024/05/08 10:35:29;;;;;;;151.90;50.17;;;20.80;80.80;;;;;;5516289;25;20379;-54
2024/05/08 10:37:59;;;;;;;152.73;50.83;;;20.70;78.00;;;;;;5522615;26;20269;-53
2024/05/08 10:40:43;;;;;;;152.20;50.57;;;21.10;80.20;;;;;;5518706;26;20298;-54
2024/05/08 10:43:18;;;;;;;152.07;50.60;;;21.40;77.60;;;;;;5526600;25;20623;-54
2024/05/08 10:45:50;;;;;;;152.87;51.07;;;21.30;76.20;;;;;;5520688;25;20294;-56
2024/05/08 10:48:20;;;;;;;152.77;50.90;;;21.20;76.10;;;;;;5521298;25;20243;-50
2024/05/08 10:50:51;;;;;;;151.87;50.57;;;21.30;78.00;;;;;;5519462;25;20248;-53
2024/05/08 10:53:24;;;;;;;152.27;50.90;;;21.30;76.20;;;;;;5488872;26;20244;-51
2024/05/08 10:55:54;;;;;;;151.87;50.73;;;21.10;77.20;;;;;;5497521;26;20241;-53
2024/05/08 10:58:25;;;;;;;151.77;50.40;;;21.00;77.30;;;;;;5521367;26;20288;-52
2024/05/08 11:01:02;;;;;;;152.87;51.17;;;21.00;77.90;;;;;;5520941;26;20609;-56
2024/05/08 11:03:33;;;;;;;152.27;50.50;;;21.00;76.30;;;;;;5525060;25;20282;-55
2024/05/08 11:06:03;;;;;;;152.23;50.50;;;21.20;75.90;;;;;;5517095;25;20744;-54
2024/05/08 11:08:34;;;;;;;151.73;50.50;;;21.00;76.80;;;;;;5525317;25;20611;-53
2024/05/08 11:11:04;;;;;;;151.73;50.27;;;21.30;78.80;;;;;;5522720;26;20260;-50
2024/05/08 11:13:36;;;;;;;152.30;50.90;;;21.50;75.50;;;;;;5526454;25;20232;-50
2024/05/08 11:16:09;;;;;;;151.97;50.50;;;21.30;74.20;;;;;;5523453;25;20252;-52
2024/05/08 11:18:39;;;;;;;152.37;50.93;;;21.20;75.10;;;;;;5522636;26;20259;-54
2024/05/08 11:21:09;;;;;;;151.80;50.33;;;21.00;77.30;;;;;;5523311;25;20244;-54
2024/05/08 11:23:40;;;;;;;151.90;50.57;;;21.10;76.40;;;;;;5519708;25;20251;-53
2024/05/08 11:26:11;;;;;;;151.63;50.10;;;21.20;77.50;;;;;;5518663;26;20251;-52
2024/05/08 11:28:41;;;;;;;151.87;50.43;;;21.10;76.00;;;;;;5520497;25;20321;-66
2024/05/08 11:31:13;;;;;;;152.40;50.83;;;21.00;76.30;;;;;;5519093;25;20298;-57
2024/05/08 11:33:43;;;;;;;151.77;50.27;;;21.10;76.90;;;;;;5501394;26;20590;-52
2024/05/08 11:36:17;;;;;;;152.50;50.97;;;21.30;78.70;;;;;;5518790;26;20292;-57
2024/05/08 11:38:47;;;;;;;151.50;50.47;;;21.70;78.30;;;;;;5524163;25;20298;-55
2024/05/08 11:41:18;;;;;;;152.70;51.23;;;21.50;75.20;;;;;;5520591;25;20302;-59
2024/05/08 11:43:49;;;;;;;151.70;50.30;;;21.50;72.60;;;;;;5524457;25;20255;-59
2024/05/08 11:46:22;;;;;;;152.40;51.00;;;21.90;77.00;;;;;;5521912;25;20252;-60
2024/05/08 11:48:52;;;;;;;152.83;51.17;;;21.80;75.80;;;;;;5524343;25;20251;-55
2024/05/08 11:51:23;;;;;;;152.73;51.30;;;21.90;75.20;;;;;;5522572;25;20259;-54
2024/05/08 11:53:53;;;;;;;152.60;51.27;;;21.90;74.50;;;;;;5525640;25;20236;-56
2024/05/08 11:56:23;;;;;;;152.77;51.17;;;21.90;75.30;;;;;;5521318;25;20256;-59
2024/05/08 11:58:56;;;;;;;152.50;50.73;;;21.90;72.80;;;;;;5518068;26;20293;-58
2024/05/08 12:01:29;;;;;;;152.27;50.67;;;21.80;72.80;;;;;;5519208;26;20283;-59
2024/05/08 12:03:59;;;;;;;152.13;50.33;;;21.80;75.40;;;;;;5524695;25;20644;-56
2024/05/08 12:06:29;;;;;;;152.57;51.13;;;21.80;72.80;;;;;;5519145;25;20319;-57
2024/05/08 12:08:59;;;;;;;152.40;50.87;;;21.50;70.50;;;;;;5523964;25;20251;-59
2024/05/08 12:11:29;;;;;;;152.87;51.23;;;21.40;70.90;;;;;;5522948;25;20335;-58
2024/05/08 12:14:02;;;;;;;152.80;51.30;;;21.40;72.50;;;;;;5525270;25;20236;-57
2024/05/08 12:16:35;;;;;;;152.90;51.17;;;21.50;72.40;;;;;;5523713;25;20731;-56
2024/05/08 12:19:05;;;;;;;152.80;51.43;;;21.70;72.90;;;;;;5523562;25;20328;-56
2024/05/08 12:21:35;;;;;;;152.70;51.13;;;21.90;76.40;;;;;;5522796;25;20248;-56
2024/05/08 12:24:06;;;;;;;151.53;50.67;;;22.10;74.80;;;;;;5524880;25;20386;-56
2024/05/08 12:26:38;;;;;;;153.03;51.53;;;22.30;75.60;;;;;;5523140;25;20293;-56
2024/05/08 12:29:09;;;;;;;152.73;51.23;;;22.20;74.50;;;;;;5522521;25;20298;-55
2024/05/08 12:31:52;;;;;;;152.77;51.27;;;22.00;69.60;;;;;;5523136;25;20282;-58
2024/05/08 12:34:22;;;;;;;152.63;50.93;;;22.10;74.30;;;;;;5516358;25;20252;-58
2024/05/08 12:36:52;;;;;;;153.33;52.00;;;21.90;66.30;;;;;;5507856;26;20252;-58
2024/05/08 12:39:23;;;;;;;152.70;51.27;;;21.90;69.40;;;;;;5510177;26;20256;-56
2024/05/08 12:41:53;;;;;;;153.60;51.67;;;21.80;69.80;;;;;;5508725;25;20261;-56
2024/05/08 12:44:23;;;;;;;153.07;51.33;;;21.60;68.40;;;;;;5507733;26;20352;-58
2024/05/08 12:46:55;;;;;;;152.80;51.27;;;21.50;71.50;;;;;;5522994;25;20740;-56
2024/05/08 12:49:26;;;;;;;152.10;50.73;;;21.50;74.00;;;;;;5515961;25;20279;-55